createdAt,value
2019-04-03T00:01:49.231Z,8.28
2019-04-03T00:04:20.923Z,8.26
2019-04-03T00:06:52.800Z,8.24
2019-04-03T00:09:24.418Z,8.20
2019-04-03T00:11:56.058Z,8.17
2019-04-03T00:14:27.735Z,8.13
2019-04-03T00:16:59.222Z,8.11
2019-04-03T00:19:30.705Z,8.09
2019-04-03T00:22:03.297Z,8.06
2019-04-03T00:24:35.913Z,8.04
2019-04-03T00:27:07.656Z,8.00
2019-04-03T00:29:39.242Z,7.98
2019-04-03T00:32:10.967Z,7.95
2019-04-03T00:34:42.620Z,7.93
2019-04-03T00:37:14.221Z,7.86
2019-04-03T00:39:45.762Z,7.82
2019-04-03T00:42:17.379Z,7.78
2019-04-03T00:44:49.000Z,7.77
2019-04-03T00:47:20.560Z,7.75
2019-04-03T00:49:52.113Z,7.72
2019-04-03T00:52:23.825Z,7.70
2019-04-03T00:54:56.515Z,7.65
2019-04-03T00:57:28.651Z,7.61
2019-04-03T01:00:00.176Z,7.60
2019-04-03T01:02:31.770Z,7.55
2019-04-03T01:05:04.105Z,7.55
2019-04-03T01:07:35.717Z,7.52
2019-04-03T01:10:08.474Z,7.51
2019-04-03T01:12:40.010Z,7.49
2019-04-03T01:15:11.788Z,7.48
2019-04-03T01:17:43.440Z,7.45
2019-04-03T01:20:16.555Z,7.42
2019-04-03T01:22:48.257Z,7.43
2019-04-03T01:25:20.003Z,7.39
2019-04-03T01:27:51.508Z,7.37
2019-04-03T01:30:24.665Z,7.35
2019-04-03T01:32:56.315Z,7.32
2019-04-03T01:35:27.948Z,7.31
2019-04-03T01:37:59.679Z,7.29
2019-04-03T01:40:31.386Z,7.27
2019-04-03T01:43:02.878Z,7.27
2019-04-03T01:45:34.398Z,7.25
2019-04-03T01:48:06.113Z,7.22
2019-04-03T01:50:38.767Z,7.22
2019-04-03T01:53:10.990Z,7.21
2019-04-03T01:55:42.688Z,7.18
2019-04-03T01:58:14.322Z,7.19
2019-04-03T02:00:45.794Z,7.19
2019-04-03T02:03:17.325Z,7.18
2019-04-03T02:05:48.887Z,7.18
2019-04-03T02:08:20.797Z,7.17
2019-04-03T02:10:52.609Z,7.14
2019-04-03T02:13:24.203Z,7.14
2019-04-03T02:15:55.835Z,7.12
2019-04-03T02:18:27.417Z,7.11
2019-04-03T02:20:59.430Z,7.12
2019-04-03T02:23:31.260Z,7.11
2019-04-03T02:26:03.114Z,7.08
2019-04-03T02:28:35.254Z,7.07
2019-04-03T02:31:07.113Z,7.04
2019-04-03T02:33:38.691Z,7.06
2019-04-03T02:36:12.210Z,7.07
2019-04-03T02:38:43.550Z,7.08
2019-04-03T02:41:16.318Z,7.05
2019-04-03T02:43:47.859Z,7.06
2019-04-03T02:46:19.567Z,7.03
2019-04-03T02:48:51.362Z,7.00
2019-04-03T02:51:23.051Z,6.99
2019-04-03T02:53:54.555Z,6.97
2019-04-03T02:56:26.172Z,6.98
2019-04-03T02:58:57.686Z,6.96
2019-04-03T03:01:29.254Z,6.96
2019-04-03T03:04:01.003Z,6.94
2019-04-03T03:06:33.641Z,6.91
2019-04-03T03:09:06.396Z,6.90
2019-04-03T03:11:37.942Z,6.89
2019-04-03T03:14:09.696Z,6.86
2019-04-03T03:16:41.592Z,6.85
2019-04-03T03:19:14.055Z,6.84
2019-04-03T03:21:46.292Z,6.82
2019-04-03T03:24:17.998Z,6.80
2019-04-03T03:26:49.717Z,6.79
2019-04-03T03:29:25.083Z,6.76
2019-04-03T03:32:12.735Z,6.73
2019-04-03T03:34:49.307Z,6.70
2019-04-03T03:37:03.329Z,6.68
2019-04-03T03:39:35.107Z,6.66
2019-04-03T03:42:06.666Z,6.65
2019-04-03T03:44:40.696Z,6.63
2019-04-03T03:47:11.502Z,6.60
2019-04-03T03:49:43.174Z,6.55
2019-04-03T03:52:15.655Z,6.51
2019-04-03T03:54:49.635Z,6.52
2019-04-03T03:57:20.394Z,6.48
2019-04-03T03:59:52.808Z,6.47
2019-04-03T04:02:24.811Z,6.44
2019-04-03T04:04:56.456Z,6.44
2019-04-03T04:07:28.077Z,6.40
2019-04-03T04:09:59.669Z,6.39
2019-04-03T04:12:31.318Z,6.35
2019-04-03T04:15:03.258Z,6.34
2019-04-03T04:17:35.245Z,6.32
2019-04-03T04:20:07.705Z,6.31
2019-04-03T04:22:39.698Z,6.30
2019-04-03T04:25:11.332Z,6.28
2019-04-03T04:27:42.968Z,6.25
2019-04-03T04:30:15.801Z,6.26
2019-04-03T04:32:47.631Z,6.22
2019-04-03T04:35:21.490Z,6.21
2019-04-03T04:37:55.401Z,6.19
2019-04-03T04:40:25.659Z,6.19
2019-04-03T04:42:57.198Z,6.18
2019-04-03T04:45:28.619Z,6.19
2019-04-03T04:48:00.302Z,6.17
2019-04-03T04:50:31.951Z,6.18
2019-04-03T04:53:03.481Z,6.19
2019-04-03T04:55:35.927Z,6.20
2019-04-03T04:58:07.724Z,6.20
2019-04-03T05:00:39.474Z,6.21
2019-04-03T05:03:11.048Z,6.23
2019-04-03T05:05:42.775Z,6.25
2019-04-03T05:08:14.346Z,6.25
2019-04-03T05:10:48.634Z,6.27
2019-04-03T05:13:19.297Z,6.30
2019-04-03T05:15:53.197Z,6.32
2019-04-03T05:18:24.027Z,6.35
2019-04-03T05:20:55.646Z,6.36
2019-04-03T05:23:27.792Z,6.39
2019-04-03T05:26:01.934Z,6.43
2019-04-03T05:28:34.067Z,6.47
2019-04-03T05:31:07.953Z,6.50
2019-04-03T05:33:41.226Z,6.56
2019-04-03T05:36:12.950Z,6.60
2019-04-03T05:38:44.418Z,6.64
2019-04-03T05:41:16.102Z,6.70
2019-04-03T05:43:47.560Z,6.74
2019-04-03T05:46:19.882Z,6.79
2019-04-03T05:48:51.484Z,6.84
2019-04-03T05:51:23.024Z,6.91
2019-04-03T05:53:54.629Z,6.98
2019-04-03T05:56:26.184Z,7.03
2019-04-03T05:59:01.335Z,7.10
2019-04-03T06:01:31.343Z,7.16
2019-04-03T06:04:03.055Z,7.24
2019-04-03T06:06:34.919Z,7.32
2019-04-03T06:09:07.764Z,7.40
2019-04-03T06:11:40.765Z,7.47
2019-04-03T06:14:12.848Z,7.56
2019-04-03T06:16:44.470Z,7.63
2019-04-03T06:19:16.167Z,7.72
2019-04-03T06:21:48.308Z,7.80
2019-04-03T06:24:20.479Z,7.88
2019-04-03T06:26:52.103Z,7.96
2019-04-03T06:29:23.830Z,8.04
2019-04-03T06:31:55.915Z,8.12
2019-04-03T06:34:28.887Z,8.22
2019-04-03T06:37:00.650Z,8.30
2019-04-03T06:39:32.369Z,8.40
2019-04-03T06:42:03.943Z,8.49
2019-04-03T06:44:35.603Z,8.58
2019-04-03T06:47:07.059Z,8.68
2019-04-03T06:49:40.255Z,8.77
2019-04-03T06:52:13.740Z,8.85
2019-04-03T06:54:45.286Z,8.94
2019-04-03T06:57:16.987Z,9.02
2019-04-03T06:59:48.934Z,9.10
2019-04-03T07:02:20.759Z,9.18
2019-04-03T07:04:52.394Z,9.24
2019-04-03T07:07:32.946Z,9.31
2019-04-03T07:09:57.366Z,9.39
2019-04-03T07:12:29.352Z,9.48
2019-04-03T07:15:01.036Z,9.53
2019-04-03T07:17:33.012Z,9.63
2019-04-03T07:20:13.606Z,9.71
2019-04-03T07:22:39.758Z,9.80
2019-04-03T07:25:11.538Z,9.89
2019-04-03T07:27:43.226Z,9.95
2019-04-03T07:30:17.035Z,10.03
2019-04-03T07:32:48.423Z,10.11
2019-04-03T07:35:20.063Z,10.16
2019-04-03T07:37:52.050Z,10.23
2019-04-03T07:40:23.822Z,10.30
2019-04-03T07:42:56.334Z,10.41
2019-04-03T07:45:28.792Z,10.47
2019-04-03T07:48:01.299Z,10.55
2019-04-03T07:50:36.109Z,10.65
2019-04-03T07:53:06.683Z,10.76
2019-04-03T07:55:39.856Z,10.87
2019-04-03T07:58:11.434Z,10.98
2019-04-03T08:00:43.084Z,11.10
2019-04-03T08:03:14.857Z,11.22
2019-04-03T08:05:46.616Z,11.35
2019-04-03T08:08:18.203Z,11.46
2019-04-03T08:10:49.804Z,11.57
2019-04-03T08:13:21.403Z,11.66
2019-04-03T08:15:53.066Z,11.79
2019-04-03T08:18:26.501Z,11.91
2019-04-03T08:21:01.539Z,12.02
2019-04-03T08:23:31.714Z,12.13
2019-04-03T08:26:04.078Z,12.24
2019-04-03T08:28:35.664Z,12.35
2019-04-03T08:31:10.456Z,12.48
2019-04-03T08:33:40.632Z,12.59
2019-04-03T08:36:23.132Z,12.71
2019-04-03T08:38:45.783Z,12.80
2019-04-03T08:41:17.587Z,12.92
2019-04-03T08:43:49.386Z,13.05
2019-04-03T08:46:20.890Z,13.12
2019-04-03T08:48:54.704Z,13.24
2019-04-03T08:51:25.802Z,13.31
2019-04-03T08:53:57.577Z,13.43
2019-04-03T08:56:29.478Z,13.53
2019-04-03T08:59:01.115Z,13.60
2019-04-03T09:01:35.944Z,13.71
2019-04-03T09:04:06.106Z,13.79
2019-04-03T09:06:37.732Z,13.88
2019-04-03T09:09:11.517Z,13.92
2019-04-03T09:11:43.592Z,14.01
2019-04-03T09:14:15.350Z,14.10
2019-04-03T09:16:47.033Z,14.18
2019-04-03T09:19:18.972Z,14.29
2019-04-03T09:21:51.663Z,14.42
2019-04-03T09:24:23.324Z,14.51
2019-04-03T09:26:54.886Z,14.62
2019-04-03T09:29:26.823Z,14.69
2019-04-03T09:31:58.487Z,14.82
2019-04-03T09:34:32.252Z,14.93
2019-04-03T09:37:06.378Z,14.99
2019-04-03T09:39:37.711Z,15.13
2019-04-03T09:42:09.470Z,15.17
2019-04-03T09:44:41.121Z,15.28
2019-04-03T09:47:12.863Z,15.37
2019-04-03T09:49:44.858Z,15.41
2019-04-03T09:52:16.475Z,15.53
2019-04-03T09:54:48.021Z,15.62
2019-04-03T09:57:19.915Z,15.65
2019-04-03T09:59:51.789Z,15.74
2019-04-03T10:02:23.460Z,15.80
2019-04-03T10:04:57.332Z,15.90
2019-04-03T10:07:30.970Z,15.96
2019-04-03T10:10:02.005Z,16.09
2019-04-03T10:12:35.034Z,16.26
2019-04-03T10:15:08.116Z,16.37
2019-04-03T10:17:39.748Z,16.48
2019-04-03T10:20:11.375Z,16.57
2019-04-03T10:22:43.019Z,16.73
2019-04-03T10:25:14.634Z,16.83
2019-04-03T11:23:58.395Z,18.15
2019-04-03T11:26:30.136Z,18.18
2019-04-03T11:29:02.123Z,18.27
2019-04-03T11:31:40.670Z,18.29
2019-04-03T11:34:07.258Z,18.36
2019-04-03T11:36:39.319Z,18.41
2019-04-03T11:39:15.043Z,18.50
2019-04-03T11:41:43.981Z,18.62
2019-04-03T11:44:15.456Z,18.64
2019-04-03T11:46:47.174Z,18.64
2019-04-03T11:49:21.411Z,18.61
2019-04-03T11:51:53.072Z,18.67
2019-04-03T11:54:25.135Z,18.78
2019-04-03T11:56:57.218Z,18.85
2019-04-03T11:59:29.348Z,18.90
2019-04-03T12:02:01.160Z,18.92
2019-04-03T12:04:32.881Z,19.08
2019-04-03T12:07:04.497Z,19.17
2019-04-03T12:09:36.226Z,19.17
2019-04-03T12:12:10.501Z,19.18
2019-04-03T12:14:41.384Z,19.15
2019-04-03T12:17:13.499Z,19.17
2019-04-03T12:19:46.098Z,19.13
2019-04-03T12:22:17.845Z,19.16
2019-04-03T12:24:49.581Z,19.31
2019-04-03T12:27:21.220Z,19.45
2019-04-03T12:29:54.581Z,19.52
2019-04-03T12:32:36.667Z,19.62
2019-04-03T12:34:59.464Z,19.78
2019-04-03T12:37:31.363Z,20.06
2019-04-03T12:40:03.579Z,20.39
2019-04-03T12:42:35.714Z,20.69
2019-04-03T12:45:07.915Z,20.93
2019-04-03T12:47:42.620Z,21.17
2019-04-03T12:50:13.503Z,21.44
2019-04-03T12:52:45.988Z,21.46
2019-04-03T12:55:17.554Z,21.70
2019-04-03T12:57:49.530Z,21.94
2019-04-03T13:00:23.141Z,22.19
2019-04-03T13:02:55.395Z,22.24
2019-04-03T13:05:27.481Z,22.43
2019-04-03T13:07:59.818Z,22.63
2019-04-03T13:10:41.357Z,22.83
2019-04-03T13:13:05.627Z,22.84
2019-04-03T13:15:38.090Z,23.10
2019-04-03T13:18:10.251Z,23.33
2019-04-03T13:20:43.401Z,23.46
2019-04-03T13:23:15.588Z,23.63
2019-04-03T13:25:47.814Z,23.73
2019-04-03T13:28:19.640Z,23.87
2019-04-03T13:30:51.259Z,23.94
2019-04-03T13:33:22.767Z,23.98
2019-04-03T13:35:54.583Z,24.11
2019-04-03T13:38:28.445Z,24.19
2019-04-03T13:41:00.545Z,24.24
2019-04-03T13:43:32.544Z,24.36
2019-04-03T13:46:05.036Z,24.63
2019-04-03T13:48:37.870Z,24.62
2019-04-03T13:51:12.210Z,24.68
2019-04-03T13:53:43.110Z,24.61
2019-04-03T13:56:15.016Z,24.85
2019-04-03T13:58:47.004Z,24.95
2019-04-03T14:01:19.667Z,25.15
2019-04-03T14:03:51.658Z,25.13
2019-04-03T14:06:25.087Z,25.26
2019-04-03T14:08:57.340Z,25.38
2019-04-03T14:11:31.258Z,25.46
2019-04-03T14:14:03.313Z,25.54
2019-04-03T14:16:35.570Z,25.45
2019-04-03T14:19:07.295Z,25.42
2019-04-03T14:21:39.023Z,25.39
2019-04-03T14:24:10.527Z,25.28
2019-04-03T14:26:44.301Z,25.51
2019-04-03T14:29:15.822Z,25.41
2019-04-03T14:31:48.552Z,25.24
2019-04-03T14:34:21.231Z,25.17
2019-04-03T14:36:53.085Z,25.03
2019-04-03T14:39:25.067Z,25.10
2019-04-03T14:41:56.659Z,25.07
2019-04-03T14:44:28.417Z,25.03
2019-04-03T14:47:00.245Z,24.93
2019-04-03T14:49:33.275Z,24.86
2019-04-03T14:52:05.272Z,24.87
2019-04-03T14:54:37.153Z,24.64
2019-04-03T14:57:19.749Z,24.63
2019-04-03T14:59:43.124Z,24.45
2019-04-03T15:02:14.770Z,24.37
2019-04-03T15:04:46.617Z,24.15
2019-04-03T15:07:18.922Z,24.01
2019-04-03T15:09:50.480Z,23.91
2019-04-03T15:12:22.230Z,23.72
2019-04-03T15:14:54.510Z,23.50
2019-04-03T15:17:26.991Z,23.24
2019-04-03T15:19:58.593Z,22.88
2019-04-03T15:22:32.477Z,22.54
2019-04-03T15:25:03.423Z,22.21
2019-04-03T15:27:35.040Z,21.98
2019-04-03T15:30:11.224Z,21.82
2019-04-03T15:32:42.935Z,21.61
2019-04-03T15:35:14.858Z,21.42
2019-04-03T15:37:46.481Z,21.21
2019-04-03T15:40:18.027Z,21.06
2019-04-03T15:42:49.742Z,20.85
2019-04-03T15:45:22.468Z,20.69
2019-04-03T15:47:57.096Z,20.50
2019-04-03T15:50:30.192Z,20.37
2019-04-03T15:53:01.317Z,20.21
2019-04-03T15:55:33.000Z,20.06
2019-04-03T15:58:04.914Z,19.99
2019-04-03T16:00:37.070Z,19.87
2019-04-03T16:03:08.756Z,19.75
2019-04-03T16:05:40.816Z,19.64
2019-04-03T16:08:13.320Z,19.45
2019-04-03T16:10:45.561Z,19.31
2019-04-03T16:13:17.752Z,19.21
2019-04-03T16:15:49.327Z,19.12
2019-04-03T16:18:21.268Z,19.00
2019-04-03T16:20:52.866Z,18.85
2019-04-03T16:23:24.551Z,18.75
2019-04-03T16:25:56.508Z,18.62
2019-04-03T16:28:28.615Z,18.54
2019-04-03T16:31:00.467Z,18.42
2019-04-03T16:33:35.075Z,18.31
2019-04-03T16:36:06.901Z,18.23
2019-04-03T16:38:39.190Z,18.11
2019-04-03T16:41:11.794Z,17.99
2019-04-03T16:43:43.624Z,17.90
2019-04-03T16:46:15.675Z,17.79
2019-04-03T16:48:49.904Z,17.66
2019-04-03T16:51:21.406Z,17.53
2019-04-03T16:53:53.297Z,17.42
2019-04-03T16:56:25.253Z,17.30
2019-04-03T16:58:59.760Z,17.18
2019-04-03T17:01:30.706Z,17.08
2019-04-03T17:04:03.930Z,17.01
2019-04-03T17:06:35.651Z,16.90
2019-04-03T17:09:08.790Z,16.78
2019-04-03T17:11:43.488Z,16.67
2019-04-03T17:14:13.651Z,16.59
2019-04-03T17:16:46.282Z,16.52
2019-04-03T17:19:18.912Z,16.41
2019-04-03T17:21:50.770Z,16.32
2019-04-03T17:24:23.567Z,16.23
2019-04-03T17:26:58.297Z,16.15
2019-04-03T17:29:29.228Z,16.05
2019-04-03T17:32:01.014Z,15.97
2019-04-03T17:34:33.087Z,15.91
2019-04-03T17:37:04.938Z,15.85
2019-04-03T17:39:37.850Z,15.77
2019-04-03T17:42:09.497Z,15.69
2019-04-03T17:44:42.868Z,15.63
2019-04-03T17:47:14.661Z,15.57
2019-04-03T17:49:46.288Z,15.49
2019-04-03T17:52:18.049Z,15.43
2019-04-03T17:54:49.615Z,15.37
2019-04-03T17:57:21.142Z,15.29
2019-04-03T17:59:52.769Z,15.23
2019-04-03T18:02:24.697Z,15.16
2019-04-03T18:04:57.793Z,15.11
2019-04-03T18:07:29.331Z,15.05
2019-04-03T18:10:01.162Z,14.99
2019-04-03T18:12:32.962Z,14.92
2019-04-03T18:15:07.862Z,14.90
2019-04-03T18:17:39.686Z,14.86
2019-04-03T18:20:13.287Z,14.82
2019-04-03T18:22:44.766Z,14.76
2019-04-03T18:25:16.244Z,14.73
2019-04-03T18:27:47.810Z,14.69
2019-04-03T18:30:19.693Z,14.64
2019-04-03T18:32:51.393Z,14.60
2019-04-03T18:35:25.444Z,14.55
2019-04-03T18:37:56.249Z,14.51
2019-04-03T18:40:32.841Z,14.47
2019-04-03T18:43:16.888Z,14.45
2019-04-03T18:45:58.478Z,14.43
2019-04-03T18:48:34.589Z,14.39
2019-04-03T18:51:07.224Z,14.37
2019-04-03T18:53:40.647Z,14.34
2019-04-03T18:56:13.772Z,14.31
2019-04-03T18:58:53.130Z,14.28
2019-04-03T19:01:26.279Z,14.26
2019-04-03T19:03:57.871Z,14.22
2019-04-03T19:06:29.523Z,14.20
2019-04-03T19:09:09.771Z,14.16
2019-04-03T19:11:36.051Z,14.16
2019-04-03T19:14:07.844Z,14.11
2019-04-03T19:16:45.266Z,14.08
2019-04-03T19:19:16.326Z,14.07
2019-04-03T19:21:47.985Z,14.04
2019-04-03T19:24:19.574Z,14.02
2019-04-03T19:26:51.202Z,13.98
2019-04-03T19:29:22.891Z,13.97
2019-04-03T19:31:55.356Z,13.92
2019-04-03T19:34:27.040Z,13.90
2019-04-03T19:36:58.855Z,13.87
2019-04-03T19:39:30.603Z,13.83
2019-04-03T19:42:02.566Z,13.82
2019-04-03T19:44:34.117Z,13.78
2019-04-03T19:47:06.927Z,13.74
2019-04-03T19:49:40.198Z,13.71
2019-04-03T19:52:13.072Z,13.70
2019-04-03T19:54:45.175Z,13.67
2019-04-03T19:57:16.831Z,13.65
2019-04-03T19:59:49.093Z,13.63
2019-04-03T20:02:21.259Z,13.60
2019-04-03T20:04:52.851Z,13.59
2019-04-03T20:07:24.835Z,13.57
2019-04-03T20:09:58.364Z,13.55
2019-04-03T20:12:30.478Z,13.52
2019-04-03T20:15:02.746Z,13.48
2019-04-03T20:17:34.765Z,13.44
2019-04-03T20:20:07.684Z,13.39
2019-04-03T20:22:57.843Z,13.37
2019-04-03T20:25:35.688Z,13.36
2019-04-03T20:28:07.949Z,13.33
2019-04-03T20:30:39.589Z,13.31
2019-04-03T20:33:11.717Z,13.27
2019-04-03T20:35:43.749Z,13.24
2019-04-03T20:38:15.640Z,13.22
2019-04-03T20:40:47.274Z,13.16
2019-04-03T20:43:18.888Z,13.14
2019-04-03T20:45:50.389Z,13.10
2019-04-03T20:48:22.970Z,13.07
2019-04-03T20:50:54.483Z,13.04
2019-04-03T20:53:26.017Z,13.02
2019-04-03T20:55:58.087Z,12.99
2019-04-03T20:58:30.479Z,12.96
2019-04-03T21:01:06.839Z,12.93
2019-04-03T21:03:35.284Z,12.90
2019-04-03T21:06:06.724Z,12.88
2019-04-03T21:08:38.345Z,12.85
2019-04-03T21:11:09.896Z,12.81
2019-04-03T21:13:42.536Z,12.78
2019-04-03T21:16:15.013Z,12.75
2019-04-03T21:18:47.667Z,12.73
2019-04-03T21:21:19.523Z,12.69
2019-04-03T21:23:50.999Z,12.67
2019-04-03T21:26:22.625Z,12.65
2019-04-03T21:28:54.159Z,12.61
2019-04-03T21:31:26.038Z,12.58
2019-04-03T21:33:58.278Z,12.56
2019-04-03T21:36:29.893Z,12.53
2019-04-03T21:39:01.462Z,12.51
2019-04-03T21:41:34.668Z,12.49
2019-04-03T21:44:06.205Z,12.46
2019-04-03T21:46:39.672Z,12.41
2019-04-03T21:49:11.908Z,12.38
2019-04-03T21:51:43.541Z,12.35
2019-04-03T21:54:15.096Z,12.32
2019-04-03T21:56:46.670Z,12.31
2019-04-03T21:59:18.222Z,12.28
2019-04-03T22:01:49.888Z,12.25
2019-04-03T22:04:22.787Z,12.24
2019-04-03T22:06:57.633Z,12.21
2019-04-03T22:09:28.843Z,12.17
2019-04-03T22:12:01.577Z,12.14
2019-04-03T22:14:34.217Z,12.11
2019-04-03T22:17:05.815Z,12.10
2019-04-03T22:19:37.421Z,12.08
2019-04-03T22:22:08.997Z,12.06
2019-04-03T22:24:40.711Z,12.02
2019-04-03T22:27:12.175Z,12.00
2019-04-03T22:29:44.080Z,11.98
2019-04-03T22:32:15.626Z,11.95
2019-04-03T22:34:47.249Z,11.92
2019-04-03T22:37:18.940Z,11.90
2019-04-03T22:39:50.789Z,11.88
2019-04-03T22:42:22.235Z,11.84
2019-04-03T22:44:53.874Z,11.82
2019-04-03T22:47:25.753Z,11.81
2019-04-03T22:49:57.443Z,11.79
2019-04-03T22:52:29.056Z,11.76
2019-04-03T22:55:00.766Z,11.73
2019-04-03T22:57:32.619Z,11.68
2019-04-03T23:00:06.647Z,11.67
2019-04-03T23:02:38.858Z,11.66
2019-04-03T23:05:10.455Z,11.63
2019-04-03T23:07:42.430Z,11.61
2019-04-03T23:10:14.014Z,11.58
2019-04-03T23:12:45.831Z,11.55
2019-04-03T23:15:17.483Z,11.50
2019-04-03T23:17:49.250Z,11.51
2019-04-03T23:20:22.164Z,11.46
2019-04-03T23:22:56.344Z,11.44
2019-04-03T23:25:27.831Z,11.43
2019-04-03T23:28:02.990Z,11.38
2019-04-03T23:30:35.511Z,11.38
2019-04-03T23:33:08.292Z,11.34
2019-04-03T23:35:40.574Z,11.32
2019-04-03T23:38:12.220Z,11.30
2019-04-03T23:40:44.037Z,11.26
2019-04-03T23:43:15.656Z,11.24
2019-04-03T23:45:47.301Z,11.21
2019-04-03T23:48:20.043Z,11.20
2019-04-03T23:50:52.721Z,11.16
2019-04-03T23:53:24.820Z,11.16
2019-04-03T23:55:56.522Z,11.12
2019-04-03T23:58:28.129Z,11.09
